Time;durP1;ratioP1;P1;durP2;ratioP2;P2;SDS_P1;SDS_P2;PMS_P1;PMS_P2;Temp;Humidity;BMP_temperature;BMP_pressure;BME280_temperature;BME280_humidity;BME280_pressure;Samples;Min_cycle;Max_cycle;Signal;HPM_P1;HPM_P2
2021/03/12 00:00:17;;;;;;;8.60;1.13;;;5.60;99.90;;;;;;4891480;28;20095;-82
2021/03/12 00:02:46;;;;;;;10.80;1.60;;;5.60;99.90;;;;;;4891330;28;20165;-79
2021/03/12 00:05:18;;;;;;;14.70;1.70;;;5.70;99.90;;;;;;4893403;28;20134;-79
2021/03/12 00:07:43;;;;;;;17.95;1.95;;;5.70;99.90;;;;;;4889633;28;20690;-80
2021/03/12 00:10:11;;;;;;;14.60;1.25;;;5.70;99.90;;;;;;4887174;28;20088;-81
2021/03/12 00:12:34;;;;;;;13.60;1.30;;;5.70;99.90;;;;;;4888624;28;20530;-80
2021/03/12 00:14:57;;;;;;;12.55;1.40;;;5.70;99.90;;;;;;4883657;28;20083;-81
2021/03/12 00:17:29;;;;;;;16.30;1.70;;;5.70;99.90;;;;;;4876861;28;20130;-81
2021/03/12 00:19:59;;;;;;;7.85;1.50;;;5.70;99.90;;;;;;4880705;28;20080;-80
2021/03/12 00:22:22;;;;;;;13.65;1.55;;;5.70;99.90;;;;;;4882708;28;20096;-80
2021/03/12 00:24:46;;;;;;;11.40;1.45;;;5.70;99.90;;;;;;4879803;28;20203;-81
2021/03/12 00:27:11;;;;;;;11.30;1.73;;;5.70;99.90;;;;;;4889438;28;20500;-83
2021/03/12 00:29:33;;;;;;;14.70;1.85;;;5.70;99.90;;;;;;4890013;28;20091;-81
2021/03/12 00:31:56;;;;;;;9.43;1.55;;;5.80;99.90;;;;;;4887649;28;20095;-80
2021/03/12 00:34:19;;;;;;;14.35;1.90;;;5.70;99.90;;;;;;4882307;28;20092;-81
2021/03/12 00:36:41;;;;;;;16.73;2.20;;;5.80;99.90;;;;;;4882609;28;20138;-80
2021/03/12 00:39:05;;;;;;;7.82;1.58;;;5.70;99.90;;;;;;4890446;28;20098;-80
2021/03/12 00:41:33;;;;;;;10.02;1.98;;;5.80;99.90;;;;;;4890448;28;20087;-80
2021/03/12 00:43:59;;;;;;;10.45;1.23;;;5.80;99.90;;;;;;4888526;28;20133;-79
2021/03/12 00:46:28;;;;;;;9.52;1.35;;;5.80;99.90;;;;;;4888557;28;20090;-80
2021/03/12 00:48:58;;;;;;;10.07;1.95;;;5.90;99.90;;;;;;4890291;28;20091;-80
2021/03/12 00:51:21;;;;;;;6.90;1.58;;;;;;;;;;4881997;28;20122;-81
2021/03/12 00:53:44;;;;;;;12.40;1.73;;;5.70;99.90;;;;;;4885042;28;20119;-80
2021/03/12 00:56:06;;;;;;;4.53;1.38;;;5.70;99.90;;;;;;4888903;28;20087;-80
2021/03/12 00:58:31;;;;;;;9.32;1.70;;;5.60;99.90;;;;;;4891787;28;20083;-80
2021/03/12 01:00:55;;;;;;;4.88;1.50;;;;;;;;;;4883398;28;20095;-81
2021/03/12 01:03:18;;;;;;;8.45;1.35;;;5.50;99.90;;;;;;4886582;28;20106;-79
2021/03/12 01:05:42;;;;;;;13.18;2.00;;;5.50;99.90;;;;;;4891143;28;25448;-80
2021/03/12 01:08:05;;;;;;;6.03;1.38;;;5.40;99.90;;;;;;4879320;28;20083;-79
2021/03/12 01:10:29;;;;;;;6.63;1.50;;;5.40;99.90;;;;;;4885270;28;20087;-80
2021/03/12 01:12:52;;;;;;;11.88;1.50;;;5.40;99.90;;;;;;4882510;28;20084;-80
2021/03/12 01:15:21;;;;;;;8.63;1.48;;;5.40;99.90;;;;;;4889543;28;20088;-80
2021/03/12 01:17:52;;;;;;;9.60;1.58;;;5.30;99.90;;;;;;4884343;28;20090;-80
2021/03/12 01:20:18;;;;;;;6.95;1.92;;;5.30;99.90;;;;;;4885961;28;20087;-80
2021/03/12 01:22:41;;;;;;;5.53;1.17;;;5.30;99.90;;;;;;4875765;28;20088;-80
2021/03/12 01:25:08;;;;;;;9.55;1.58;;;5.20;99.90;;;;;;4880710;28;20099;-80
2021/03/12 01:27:38;;;;;;;16.40;1.98;;;5.20;99.90;;;;;;4883941;28;20087;-80
2021/03/12 01:30:00;;;;;;;12.48;2.30;;;5.10;99.90;;;;;;4882466;28;20562;-80
2021/03/12 01:32:24;;;;;;;11.43;1.80;;;5.10;99.90;;;;;;4890085;28;20095;-82
2021/03/12 01:34:46;;;;;;;7.45;1.58;;;5.20;99.90;;;;;;4885808;28;20484;-79
2021/03/12 01:37:19;;;;;;;13.18;2.17;;;5.20;99.90;;;;;;4883488;28;20083;-79
2021/03/12 01:40:05;;;;;;;9.13;1.85;;;5.20;99.90;;;;;;4879329;28;20129;-78
2021/03/12 01:42:30;;;;;;;6.55;1.55;;;5.20;99.90;;;;;;4881459;28;20079;-84
2021/03/12 01:44:55;;;;;;;16.27;2.37;;;5.40;99.90;;;;;;4887855;28;20087;-79
2021/03/12 01:47:44;;;;;;;7.80;2.08;;;5.40;99.90;;;;;;4877455;28;24863;-80
2021/03/12 01:50:25;;;;;;;8.75;2.42;;;5.60;99.90;;;;;;4880605;28;20080;-80
2021/03/12 01:52:47;;;;;;;10.45;2.17;;;5.50;99.90;;;;;;4879274;28;20461;-80
2021/03/12 01:55:17;;;;;;;6.00;1.88;;;5.50;99.90;;;;;;4874073;28;20087;-80
2021/03/12 01:57:41;;;;;;;11.52;2.40;;;;;;;;;;4885019;28;20091;-79
2021/03/12 02:00:08;;;;;;;10.25;2.15;;;5.60;99.90;;;;;;4880678;28;20566;-80
2021/03/12 02:02:31;;;;;;;9.57;2.05;;;5.60;99.90;;;;;;4886563;28;20088;-80
2021/03/12 02:04:55;;;;;;;12.77;2.25;;;;;;;;;;4890377;28;20079;-79
2021/03/12 02:07:19;;;;;;;5.38;2.00;;;5.50;99.90;;;;;;4889710;28;20569;-80
2021/03/12 02:09:42;;;;;;;7.45;1.95;;;5.50;99.90;;;;;;4879840;28;20079;-79
2021/03/12 02:12:14;;;;;;;19.35;2.05;;;5.50;99.90;;;;;;4882640;28;20565;-79
2021/03/12 02:14:47;;;;;;;12.07;2.63;;;5.60;99.90;;;;;;4880949;28;20103;-80
2021/03/12 02:17:16;;;;;;;8.90;1.67;;;5.60;99.90;;;;;;4880569;28;20083;-78
2021/03/12 02:19:54;;;;;;;8.30;1.80;;;5.60;99.90;;;;;;4877437;28;20399;-80
2021/03/12 02:22:21;;;;;;;6.70;2.17;;;5.60;99.90;;;;;;4884596;28;20090;-80
2021/03/12 02:24:55;;;;;;;10.07;2.00;;;5.60;99.90;;;;;;4882459;28;20079;-80
2021/03/12 02:27:23;;;;;;;7.15;1.48;;;5.60;99.90;;;;;;4888517;28;20430;-80
2021/03/12 02:29:52;;;;;;;5.57;1.67;;;5.60;99.90;;;;;;4880868;28;20450;-79
2021/03/12 02:32:27;;;;;;;4.40;1.95;;;5.50;99.90;;;;;;4884416;28;20107;-79
2021/03/12 02:34:52;;;;;;;10.07;1.95;;;5.30;99.90;;;;;;4882366;28;20177;-79
2021/03/12 02:37:20;;;;;;;5.33;1.80;;;5.30;99.90;;;;;;4883992;28;20091;-82
2021/03/12 02:39:47;;;;;;;12.13;2.40;;;5.40;99.90;;;;;;4886979;28;20103;-81
2021/03/12 02:42:21;;;;;;;10.05;1.73;;;5.40;99.90;;;;;;4875085;28;20090;-79
2021/03/12 02:44:49;;;;;;;8.90;1.95;;;5.40;99.90;;;;;;4881779;28;20150;-79
2021/03/12 02:47:18;;;;;;;11.07;2.30;;;5.30;99.90;;;;;;4884313;28;20091;-81
2021/03/12 02:50:00;;;;;;;11.23;2.53;;;5.20;99.90;;;;;;4884428;28;20083;-81
2021/03/12 02:52:27;;;;;;;11.15;1.95;;;5.20;99.90;;;;;;4881120;28;20087;-79
2021/03/12 02:54:52;;;;;;;7.03;2.00;;;5.20;99.90;;;;;;4878043;28;20092;-79
2021/03/12 02:57:24;;;;;;;7.07;2.20;;;5.10;99.90;;;;;;4881339;28;20096;-79
2021/03/12 02:59:51;;;;;;;8.50;1.65;;;5.10;99.90;;;;;;4885888;28;20132;-80
2021/03/12 03:02:17;;;;;;;8.43;2.25;;;5.10;99.90;;;;;;4889576;28;20079;-79
2021/03/12 03:04:41;;;;;;;7.57;2.20;;;5.20;99.90;;;;;;4885692;28;20095;-79
2021/03/12 03:07:08;;;;;;;3.97;1.80;;;5.20;99.90;;;;;;4887178;28;20111;-83
2021/03/12 03:09:31;;;;;;;10.30;2.08;;;5.10;99.90;;;;;;4886605;28;20099;-80
2021/03/12 03:11:56;;;;;;;6.70;1.65;;;5.10;99.90;;;;;;4886980;28;20095;-80
2021/03/12 03:14:20;;;;;;;8.80;2.10;;;5.00;99.90;;;;;;4883898;28;20087;-80
2021/03/12 03:16:45;;;;;;;7.40;1.60;;;5.00;99.90;;;;;;4886798;28;20079;-81
2021/03/12 03:19:10;;;;;;;9.10;2.17;;;5.00;99.90;;;;;;4897213;28;20098;-79
2021/03/12 03:21:42;;;;;;;5.18;1.52;;;5.10;99.90;;;;;;4896576;28;20119;-80
2021/03/12 03:24:06;;;;;;;10.57;2.42;;;5.10;99.90;;;;;;4885676;28;20876;-82
2021/03/12 03:26:38;;;;;;;13.27;1.95;;;5.10;99.90;;;;;;4886398;28;20411;-79
2021/03/12 03:29:01;;;;;;;3.10;1.42;;;;;;;;;;4887509;28;20087;-80
2021/03/12 03:31:27;;;;;;;15.90;2.22;;;;;;;;;;4893050;28;20087;-81
2021/03/12 03:33:51;;;;;;;4.78;1.42;;;5.10;99.90;;;;;;4887867;28;20085;-79
2021/03/12 03:36:22;;;;;;;5.95;1.60;;;5.00;99.90;;;;;;4885721;28;20097;-80
2021/03/12 03:38:46;;;;;;;5.45;1.30;;;5.00;99.90;;;;;;4884420;28;20090;-80
2021/03/12 03:41:18;;;;;;;8.48;2.03;;;4.90;99.90;;;;;;4892957;28;20121;-79
2021/03/12 03:43:48;;;;;;;5.50;1.60;;;4.80;99.90;;;;;;4892290;28;20133;-81
2021/03/12 03:46:19;;;;;;;7.07;2.08;;;4.70;99.90;;;;;;4875337;28;20187;-80
2021/03/12 03:48:43;;;;;;;4.93;1.52;;;4.70;99.90;;;;;;4886128;28;20087;-78
2021/03/12 03:51:08;;;;;;;11.77;2.05;;;4.60;99.90;;;;;;4886512;28;20437;-80
2021/03/12 03:53:34;;;;;;;5.80;2.00;;;4.50;99.90;;;;;;4889411;28;20083;-80
2021/03/12 03:56:00;;;;;;;7.53;2.28;;;4.50;99.90;;;;;;4890180;28;20107;-79
2021/03/12 03:58:23;;;;;;;4.70;2.10;;;4.50;99.90;;;;;;4884858;28;20084;-79
2021/03/12 04:00:54;;;;;;;5.57;2.00;;;4.60;99.90;;;;;;4870011;28;20084;-79
2021/03/12 04:03:23;;;;;;;7.40;2.22;;;4.50;99.90;;;;;;4882347;28;20138;-80
2021/03/12 04:05:48;;;;;;;6.03;2.60;;;4.60;99.90;;;;;;4886185;28;20107;-80
2021/03/12 04:08:11;;;;;;;7.55;2.55;;;4.60;99.90;;;;;;4879934;28;20096;-80
2021/03/12 04:10:34;;;;;;;5.53;2.40;;;4.60;99.90;;;;;;4888155;28;20094;-79
2021/03/12 04:12:58;;;;;;;7.40;3.30;;;4.70;99.90;;;;;;4886016;28;20107;-79
2021/03/12 04:15:21;;;;;;;8.02;2.60;;;4.60;99.90;;;;;;4883905;28;20083;-80
2021/03/12 04:17:50;;;;;;;6.47;2.63;;;4.60;99.90;;;;;;4882256;28;20084;-80
2021/03/12 04:20:14;;;;;;;4.00;2.00;;;4.60;99.90;;;;;;4879883;28;20091;-83
2021/03/12 04:22:44;;;;;;;12.70;2.47;;;4.60;99.90;;;;;;4891980;28;20094;-81
2021/03/12 04:25:08;;;;;;;7.75;2.83;;;4.50;99.90;;;;;;4877898;28;20083;-80
2021/03/12 04:27:41;;;;;;;8.68;2.42;;;4.60;99.90;;;;;;4890945;28;20139;-81
2021/03/12 04:30:05;;;;;;;6.38;2.35;;;4.60;99.90;;;;;;4880913;28;20083;-80
2021/03/12 04:32:30;;;;;;;7.35;3.08;;;4.60;99.90;;;;;;4884079;28;20167;-79
2021/03/12 04:34:53;;;;;;;8.93;2.50;;;4.50;99.90;;;;;;4883713;28;20539;-80
2021/03/12 04:37:21;;;;;;;10.23;2.67;;;4.50;99.90;;;;;;4885643;28;20087;-79
2021/03/12 04:39:51;;;;;;;4.82;2.05;;;4.40;99.90;;;;;;4890842;28;20087;-81
2021/03/12 04:42:14;;;;;;;5.10;1.90;;;4.50;99.90;;;;;;4883909;28;20531;-79
2021/03/12 04:44:39;;;;;;;6.78;3.10;;;4.50;99.90;;;;;;4886679;28;20435;-79
2021/03/12 04:47:03;;;;;;;12.18;2.65;;;4.50;99.90;;;;;;4882712;28;20778;-80
2021/03/12 04:49:28;;;;;;;6.05;2.30;;;4.50;99.90;;;;;;4890973;28;20099;-79
2021/03/12 04:51:53;;;;;;;9.75;2.83;;;4.50;99.90;;;;;;4880754;28;20533;-80
2021/03/12 04:54:23;;;;;;;6.20;2.25;;;4.50;99.90;;;;;;4883635;28;20095;-80
2021/03/12 04:56:47;;;;;;;9.73;2.63;;;4.50;99.90;;;;;;4879697;28;20084;-79
2021/03/12 04:59:12;;;;;;;7.78;2.30;;;4.50;99.90;;;;;;4885977;28;20087;-80
2021/03/12 05:01:36;;;;;;;11.25;2.45;;;4.40;99.90;;;;;;4880291;28;20095;-80
2021/03/12 05:04:06;;;;;;;11.00;2.45;;;4.40;99.90;;;;;;4882349;28;20084;-80
2021/03/12 05:06:31;;;;;;;11.18;2.85;;;4.40;99.90;;;;;;4879351;28;20095;-79
2021/03/12 05:08:56;;;;;;;7.63;2.40;;;4.50;99.90;;;;;;4886741;28;20094;-81
2021/03/12 05:11:23;;;;;;;12.23;3.13;;;4.40;99.90;;;;;;4887630;28;20094;-79
2021/03/12 05:13:50;;;;;;;8.45;2.60;;;4.50;99.90;;;;;;4883549;28;20169;-79
2021/03/12 05:16:13;;;;;;;7.55;2.33;;;4.60;99.90;;;;;;4887789;28;20094;-81
2021/03/12 05:18:35;;;;;;;9.13;2.78;;;4.60;99.90;;;;;;4878600;28;20087;-81
2021/03/12 05:21:00;;;;;;;8.77;2.83;;;4.60;99.90;;;;;;4889639;28;20088;-81
2021/03/12 05:23:24;;;;;;;10.87;2.90;;;4.60;99.90;;;;;;4881752;28;20095;-81
2021/03/12 05:25:59;;;;;;;10.15;3.17;;;4.70;99.90;;;;;;4888456;28;20114;-79
2021/03/12 05:28:31;;;;;;;5.10;2.65;;;4.60;99.90;;;;;;4880984;28;20083;-80
2021/03/12 05:30:56;;;;;;;9.88;3.00;;;;;;;;;;4888980;28;20506;-81
2021/03/12 05:33:33;;;;;;;10.43;2.65;;;4.60;99.90;;;;;;4886927;28;20083;-78
2021/03/12 05:36:00;;;;;;;19.20;3.03;;;4.70;99.90;;;;;;4880541;28;20094;-80
2021/03/12 05:38:25;;;;;;;9.57;3.15;;;4.70;99.90;;;;;;4882559;28;20477;-80
2021/03/12 05:40:51;;;;;;;8.45;2.78;;;4.80;99.90;;;;;;4882192;28;20525;-82
2021/03/12 05:43:27;;;;;;;9.07;3.22;;;4.80;99.90;;;;;;4888899;28;20138;-80
2021/03/12 05:45:52;;;;;;;7.90;3.07;;;4.80;99.90;;;;;;4884150;28;20101;-79
2021/03/12 05:48:16;;;;;;;11.02;2.97;;;4.80;99.90;;;;;;4877817;28;20084;-80
2021/03/12 05:50:42;;;;;;;9.55;3.03;;;4.90;99.90;;;;;;4883844;28;20088;-80
2021/03/12 05:53:06;;;;;;;9.55;3.10;;;5.00;99.90;;;;;;4879943;28;20099;-81
2021/03/12 05:55:37;;;;;;;6.07;2.13;;;4.90;99.90;;;;;;4883226;28;20090;-79
2021/03/12 05:58:00;;;;;;;9.55;2.97;;;4.90;99.90;;;;;;4886078;28;20584;-81
2021/03/12 06:00:24;;;;;;;6.88;3.00;;;4.80;99.90;;;;;;4888401;28;20079;-79
2021/03/12 06:02:56;;;;;;;11.80;3.67;;;4.80;99.90;;;;;;4885625;28;20087;-80
2021/03/12 06:05:27;;;;;;;10.55;3.15;;;4.90;99.90;;;;;;4883475;28;20484;-81
2021/03/12 06:07:57;;;;;;;13.80;3.33;;;4.90;99.90;;;;;;4883258;28;20098;-79
2021/03/12 06:10:19;;;;;;;9.27;3.20;;;5.10;99.90;;;;;;4877179;28;20102;-80
2021/03/12 06:12:51;;;;;;;11.73;3.55;;;5.10;99.90;;;;;;4884079;28;20439;-81
2021/03/12 06:15:34;;;;;;;14.20;2.95;;;5.10;99.90;;;;;;4879448;28;20088;-79
2021/03/12 06:18:21;;;;;;;12.15;3.15;;;5.20;99.90;;;;;;4882119;28;20477;-79
2021/03/12 06:20:45;;;;;;;5.10;2.47;;;5.30;99.90;;;;;;4879703;28;20102;-80
2021/03/12 06:23:34;;;;;;;6.32;2.65;;;5.30;99.90;;;;;;4886257;28;20091;-79
2021/03/12 06:26:02;;;;;;;11.35;3.05;;;5.40;99.90;;;;;;4887873;28;20091;-80
2021/03/12 06:28:31;;;;;;;8.25;2.63;;;5.40;99.90;;;;;;4880949;28;20091;-80
2021/03/12 06:31:26;;;;;;;19.23;2.63;;;5.40;99.90;;;;;;4885263;28;20087;-79
2021/03/12 06:33:50;;;;;;;13.40;3.17;;;5.40;99.90;;;;;;4882610;28;20530;-79
2021/03/12 06:36:30;;;;;;;7.53;2.87;;;5.40;99.90;;;;;;4884346;28;20088;-80
2021/03/12 06:38:56;;;;;;;18.92;3.28;;;5.40;99.90;;;;;;4884072;28;20083;-79
2021/03/12 06:41:36;;;;;;;10.02;2.60;;;5.50;99.90;;;;;;4884392;28;20549;-80
2021/03/12 06:44:49;;;;;;;11.30;2.92;;;5.60;99.90;;;;;;4888661;28;20089;-79
2021/03/12 06:47:12;;;;;;;9.50;2.67;;;5.70;99.90;;;;;;4887301;28;20087;-79
2021/03/12 06:49:53;;;;;;;16.88;3.38;;;5.50;99.90;;;;;;4876586;28;20091;-80
2021/03/12 06:52:17;;;;;;;12.05;3.50;;;5.40;99.90;;;;;;4885213;28;20099;-81
2021/03/12 06:54:52;;;;;;;20.65;3.80;;;5.40;99.90;;;;;;4886203;28;20140;-82
2021/03/12 06:57:24;;;;;;;13.23;3.15;;;5.30;99.90;;;;;;4875682;28;20446;-81
2021/03/12 06:59:57;;;;;;;11.88;3.20;;;5.30;99.90;;;;;;4887757;28;20091;-79
2021/03/12 07:02:29;;;;;;;16.33;3.47;;;5.20;99.90;;;;;;4886380;28;20091;-79
2021/03/12 07:04:59;;;;;;;15.05;3.53;;;5.20;99.90;;;;;;4881957;28;21115;-80
2021/03/12 07:07:37;;;;;;;16.33;3.80;;;5.20;99.90;;;;;;4886588;28;20080;-80
2021/03/12 07:09:59;;;;;;;16.70;4.13;;;5.30;99.90;;;;;;4886216;28;20449;-80
2021/03/12 07:12:45;;;;;;;13.07;3.67;;;5.30;99.90;;;;;;4890371;28;20144;-80
2021/03/12 07:15:13;;;;;;;13.70;3.05;;;5.40;99.90;;;;;;4887357;28;20098;-79
2021/03/12 07:17:37;;;;;;;13.45;3.67;;;5.40;99.90;;;;;;4878622;28;20117;-79
2021/03/12 07:20:09;;;;;;;13.68;3.83;;;5.40;99.90;;;;;;4890452;28;20099;-80
2021/03/12 07:22:39;;;;;;;16.25;3.47;;;5.40;99.90;;;;;;4879910;28;20091;-81
2021/03/12 07:25:06;;;;;;;11.25;3.63;;;5.40;99.90;;;;;;4881000;28;20091;-79
2021/03/12 07:27:33;;;;;;;6.97;2.90;;;5.40;99.90;;;;;;4880420;28;24602;-81
2021/03/12 07:29:57;;;;;;;16.27;3.47;;;5.50;99.90;;;;;;4892919;28;20434;-81
2021/03/12 07:32:25;;;;;;;12.45;3.50;;;5.60;99.90;;;;;;4887248;28;20095;-80
2021/03/12 07:34:49;;;;;;;10.05;3.13;;;6.10;99.90;;;;;;4875155;28;20091;-81
2021/03/12 07:37:14;;;;;;;18.00;3.75;;;6.90;99.90;;;;;;4882078;28;20084;-80
2021/03/12 07:39:47;;;;;;;14.33;3.17;;;7.10;99.90;;;;;;4885483;28;20129;-82
2021/03/12 07:42:11;;;;;;;14.95;3.50;;;7.10;99.90;;;;;;4886221;28;20158;-80
2021/03/12 07:44:50;;;;;;;15.93;3.53;;;7.00;99.90;;;;;;4882045;28;20430;-82
2021/03/12 07:47:17;;;;;;;14.23;2.58;;;7.20;99.90;;;;;;4884166;28;20084;-79
2021/03/12 07:49:51;;;;;;;12.75;2.58;;;7.10;99.90;;;;;;4872738;28;20090;-79
2021/03/12 07:52:15;;;;;;;11.65;3.35;;;7.00;99.90;;;;;;4887791;28;20087;-79
2021/03/12 07:55:06;;;;;;;18.15;2.30;;;7.90;99.90;;;;;;4890935;28;20196;-79
2021/03/12 07:57:42;;;;;;;13.30;2.45;;;9.40;99.90;;;;;;4881461;28;20113;-80
2021/03/12 08:00:10;;;;;;;10.05;2.05;;;10.50;99.90;;;;;;4875623;28;20092;-80
2021/03/12 08:02:56;;;;;;;15.43;2.58;;;11.20;99.90;;;;;;4884653;28;20096;-80
2021/03/12 08:05:40;;;;;;;10.20;2.08;;;11.10;99.90;;;;;;4875871;28;20577;-80
2021/03/12 08:08:32;;;;;;;17.42;2.60;;;10.10;99.90;;;;;;4887136;28;20080;-80
2021/03/12 08:11:17;;;;;;;18.50;2.25;;;9.50;99.90;;;;;;4876192;28;20093;-79
2021/03/12 08:13:43;;;;;;;19.15;3.33;;;8.70;99.90;;;;;;4889561;28;20088;-81
2021/03/12 08:16:11;;;;;;;12.05;2.03;;;8.20;99.90;;;;;;4882656;28;20078;-79
2021/03/12 08:18:36;;;;;;;10.13;2.10;;;8.70;99.90;;;;;;4880489;28;20997;-79
2021/03/12 08:20:59;;;;;;;17.63;2.63;;;8.50;99.90;;;;;;4887405;28;20089;-79
2021/03/12 08:23:41;;;;;;;14.63;2.17;;;8.10;99.90;;;;;;4872443;28;20075;-80
2021/03/12 08:26:03;;;;;;;20.65;2.17;;;7.90;99.90;;;;;;4891029;28;22744;-80
2021/03/12 08:28:34;;;;;;;13.95;2.15;;;8.50;99.90;;;;;;4874587;28;20097;-80
2021/03/12 08:31:03;;;;;;;17.23;2.38;;;8.40;99.90;;;;;;4890172;28;20098;-80
2021/03/12 08:33:40;;;;;;;15.00;2.40;;;7.90;99.90;;;;;;4885620;28;20140;-80
2021/03/12 08:36:06;;;;;;;10.57;2.35;;;8.00;99.90;;;;;;4892474;28;20093;-80
2021/03/12 08:38:44;;;;;;;17.83;2.30;;;8.50;99.90;;;;;;4882432;28;20101;-80
2021/03/12 08:41:19;;;;;;;14.63;2.72;;;8.90;99.90;;;;;;4881712;28;20109;-79
2021/03/12 08:43:56;;;;;;;12.25;2.72;;;9.70;99.90;;;;;;4885674;28;20462;-79
2021/03/12 08:46:38;;;;;;;15.02;1.95;;;10.00;99.90;;;;;;4876131;28;20428;-80
2021/03/12 08:49:08;;;;;;;9.70;1.38;;;9.10;99.90;;;;;;4887608;28;20555;-82
2021/03/12 08:51:39;;;;;;;21.17;2.70;;;8.50;99.90;;;;;;4891163;28;20409;-81
2021/03/12 08:54:02;;;;;;;18.25;2.08;;;7.90;99.90;;;;;;4876414;28;20595;-79
2021/03/12 08:56:35;;;;;;;16.70;1.60;;;7.50;99.90;;;;;;4883316;28;20710;-80
2021/03/12 08:59:10;;;;;;;9.18;2.33;;;8.30;99.90;;;;;;4878715;28;20113;-81
2021/03/12 09:01:57;;;;;;;18.50;2.28;;;9.30;99.90;;;;;;4881211;28;20095;-79
2021/03/12 09:04:32;;;;;;;6.07;1.80;;;9.10;99.90;;;;;;4849316;28;20107;-81
2021/03/12 09:07:14;;;;;;;11.27;2.00;;;8.50;99.90;;;;;;4853220;28;20112;-79
2021/03/12 09:09:54;;;;;;;7.10;1.50;;;8.20;99.90;;;;;;4845604;28;20097;-78
2021/03/12 09:12:27;;;;;;;7.18;1.50;;;7.80;99.90;;;;;;4828050;28;20179;-79
2021/03/12 09:15:03;;;;;;;10.75;1.60;;;7.50;99.90;;;;;;4843172;28;20418;-80
2021/03/12 09:17:47;;;;;;;10.25;1.92;;;7.50;99.90;;;;;;4844007;28;20091;-79
2021/03/12 09:20:22;;;;;;;14.82;1.50;;;7.40;99.90;;;;;;4829698;28;20090;-79
2021/03/12 09:26:39;;;;;;;9.20;1.40;;;9.40;99.90;;;;;;4813625;28;20521;-80
2021/03/12 09:29:39;;;;;;;11.90;1.80;;;10.30;99.90;;;;;;4838258;28;20529;-79
2021/03/12 09:36:05;;;;;;;15.02;1.30;;;10.00;99.90;;;;;;4828632;28;21259;-79
2021/03/12 09:38:52;;;;;;;13.75;1.55;;;9.00;99.90;;;;;;4837179;28;20238;-80
2021/03/12 09:41:24;;;;;;;6.18;1.20;;;9.60;99.90;;;;;;4823281;28;20086;-79
2021/03/12 09:44:11;;;;;;;9.13;1.73;;;9.50;99.90;;;;;;4831741;28;20533;-79
2021/03/12 09:46:48;;;;;;;10.38;1.83;;;9.20;99.90;;;;;;4836557;28;20080;-80
2021/03/12 09:49:27;;;;;;;11.85;2.30;;;9.40;99.90;;;;;;4838243;28;20447;-79
2021/03/12 09:52:22;;;;;;;7.63;1.27;;;9.00;99.90;;;;;;4840572;28;20524;-79
2021/03/12 09:55:26;;;;;;;7.03;1.52;;;8.80;99.90;;;;;;4819281;28;20141;-79
2021/03/12 09:58:20;;;;;;;8.13;1.85;;;8.30;99.90;;;;;;4825561;28;20139;-79
2021/03/12 10:01:33;;;;;;;10.80;1.27;;;8.20;99.90;;;;;;4821198;28;20077;-81
2021/03/12 10:04:39;;;;;;;15.50;1.50;;;8.00;99.90;;;;;;4833467;28;20140;-81
2021/03/12 10:07:22;;;;;;;7.55;1.45;;;8.30;99.90;;;;;;4830128;28;20094;-81
2021/03/12 10:10:37;;;;;;;7.93;1.45;;;8.40;99.90;;;;;;4842166;28;20566;-80
2021/03/12 10:13:18;;;;;;;6.47;1.50;;;8.30;99.90;;;;;;4838768;28;20090;-81
2021/03/12 10:16:02;;;;;;;17.45;1.67;;;8.40;99.90;;;;;;4847559;28;20121;-80
2021/03/12 10:18:53;;;;;;;6.72;1.10;;;8.50;99.90;;;;;;4839042;28;20093;-80
2021/03/12 10:21:39;;;;;;;9.52;1.45;;;8.30;99.90;;;;;;4830928;28;20144;-79
2021/03/12 10:24:29;;;;;;;8.80;1.45;;;8.30;99.90;;;;;;4844368;28;20524;-81
2021/03/12 10:26:55;;;;;;;10.63;1.98;;;8.60;99.90;;;;;;4815319;28;20093;-80
2021/03/12 10:29:39;;;;;;;13.40;2.03;;;9.00;99.90;;;;;;4826446;28;20136;-80
2021/03/12 10:32:19;;;;;;;9.18;1.63;;;9.20;99.90;;;;;;4834384;28;20475;-79
2021/03/12 10:34:44;;;;;;;4.82;1.23;;;9.40;99.90;;;;;;4831859;28;20090;-78
2021/03/12 10:40:37;;;;;;;10.93;1.88;;;8.80;99.90;;;;;;4833337;28;20098;-79
2021/03/12 10:43:12;;;;;;;12.30;2.08;;;8.40;99.90;;;;;;4848386;28;20101;-80
2021/03/12 10:46:11;;;;;;;11.23;1.27;;;8.40;99.90;;;;;;4850766;28;20087;-81
2021/03/12 10:48:41;;;;;;;8.52;1.80;;;8.50;99.90;;;;;;4844442;28;20453;-78
2021/03/12 10:51:23;;;;;;;7.93;0.90;;;8.40;99.90;;;;;;4843683;28;20089;-84
2021/03/12 10:53:48;;;;;;;9.10;1.85;;;8.70;99.90;;;;;;4835794;28;20170;-80
2021/03/12 10:56:11;;;;;;;8.07;1.73;;;9.00;99.90;;;;;;4884131;28;20124;-82
2021/03/12 10:58:38;;;;;;;6.80;1.17;;;8.80;99.90;;;;;;4880843;28;20089;-79
2021/03/12 11:01:14;;;;;;;8.30;1.48;;;9.00;99.90;;;;;;4872468;28;20136;-80
2021/03/12 11:03:39;;;;;;;6.60;1.45;;;9.30;99.90;;;;;;4879827;28;20170;-79
2021/03/12 11:06:03;;;;;;;9.60;1.65;;;9.00;99.90;;;;;;4871582;28;20430;-81
2021/03/12 11:08:32;;;;;;;9.85;1.30;;;9.10;99.90;;;;;;4882892;28;20082;-82
2021/03/12 11:11:03;;;;;;;12.40;2.05;;;9.00;99.90;;;;;;4875119;28;20081;-80
2021/03/12 11:13:35;;;;;;;10.00;1.60;;;9.00;99.90;;;;;;4878675;28;20083;-79
2021/03/12 11:16:05;;;;;;;12.00;2.42;;;8.70;99.90;;;;;;4882750;28;20145;-84
2021/03/12 11:18:30;;;;;;;9.80;1.95;;;8.60;99.90;;;;;;4879277;28;20107;-79
2021/03/12 11:21:15;;;;;;;7.93;2.25;;;8.40;99.90;;;;;;4883340;28;20109;-80
2021/03/12 11:23:39;;;;;;;13.50;2.03;;;8.30;99.90;;;;;;4883632;28;20525;-85
2021/03/12 11:26:09;;;;;;;11.98;2.30;;;8.20;99.90;;;;;;4887254;28;20102;-81
2021/03/12 11:28:32;;;;;;;9.95;1.73;;;8.20;99.90;;;;;;4887580;28;20089;-79
2021/03/12 11:30:56;;;;;;;17.25;2.35;;;8.40;99.90;;;;;;4883377;28;20086;-80
2021/03/12 11:33:19;;;;;;;8.57;1.30;;;8.50;99.90;;;;;;4890083;28;20192;-83
2021/03/12 11:35:53;;;;;;;11.55;1.15;;;8.50;99.90;;;;;;4878401;28;20082;-81
2021/03/12 11:38:25;;;;;;;12.10;1.63;;;8.50;99.90;;;;;;4889590;28;20084;-80
2021/03/12 11:40:48;;;;;;;6.57;1.75;;;8.50;99.90;;;;;;4889078;28;20086;-84
2021/03/12 11:43:10;;;;;;;5.65;1.20;;;8.50;99.90;;;;;;4890254;28;20090;-81
2021/03/12 11:45:34;;;;;;;8.23;1.33;;;8.50;99.90;;;;;;4881580;28;20464;-80
2021/03/12 11:47:59;;;;;;;10.52;1.50;;;8.50;99.90;;;;;;4887615;28;20660;-82
2021/03/12 11:50:21;;;;;;;9.30;1.70;;;8.50;99.90;;;;;;4888720;28;20106;-81
2021/03/12 11:52:44;;;;;;;6.88;1.55;;;8.50;99.90;;;;;;4889865;28;20156;-83
2021/03/12 11:55:08;;;;;;;7.03;1.33;;;8.60;99.90;;;;;;4887486;28;20551;-84
2021/03/12 11:57:30;;;;;;;9.65;1.52;;;8.70;99.90;;;;;;4880513;28;20173;-84
2021/03/12 11:59:53;;;;;;;4.88;1.23;;;8.70;99.90;;;;;;4890835;28;20551;-82
2021/03/12 12:02:17;;;;;;;9.45;1.65;;;8.80;99.90;;;;;;4888270;28;20094;-84
2021/03/12 12:04:41;;;;;;;7.32;1.60;;;9.00;99.90;;;;;;4880897;28;20115;-83
2021/03/12 12:07:03;;;;;;;8.82;1.65;;;9.00;99.90;;;;;;4901557;28;20093;-82
2021/03/12 12:09:26;;;;;;;7.43;1.35;;;8.90;99.90;;;;;;4888669;28;20086;-80
2021/03/12 12:11:49;;;;;;;5.00;1.20;;;8.70;99.90;;;;;;4890077;28;20127;-80
2021/03/12 12:14:12;;;;;;;5.40;1.35;;;8.60;99.90;;;;;;4888360;28;20544;-81
2021/03/12 12:16:35;;;;;;;7.20;1.45;;;8.70;99.90;;;;;;4893871;28;20077;-83
2021/03/12 12:19:01;;;;;;;10.27;1.50;;;8.60;99.90;;;;;;4882458;28;20090;-83
2021/03/12 12:21:25;;;;;;;8.85;1.33;;;;;;;;;;4888758;28;20090;-81
2021/03/12 12:23:48;;;;;;;8.85;1.40;;;8.70;99.90;;;;;;4887667;28;20835;-80
2021/03/12 12:26:10;;;;;;;5.35;1.17;;;8.60;99.90;;;;;;4873270;28;20094;-84
2021/03/12 12:28:33;;;;;;;6.72;1.50;;;;;;;;;;4892773;28;20136;-82
2021/03/12 12:30:56;;;;;;;9.02;1.20;;;8.60;99.90;;;;;;4894151;28;20154;-80
2021/03/12 12:33:18;;;;;;;7.32;1.77;;;8.90;99.90;;;;;;4873821;28;20444;-82
2021/03/12 12:35:41;;;;;;;10.85;1.45;;;9.10;99.90;;;;;;4886967;28;20081;-80
2021/03/12 12:38:06;;;;;;;8.05;1.30;;;9.20;99.90;;;;;;4888190;28;20082;-83
2021/03/12 12:40:29;;;;;;;5.50;1.30;;;9.20;99.90;;;;;;4872065;28;20092;-81
2021/03/12 12:42:51;;;;;;;3.92;0.95;;;9.30;99.90;;;;;;4888787;28;20582;-84
2021/03/12 12:45:16;;;;;;;9.77;1.35;;;9.20;99.90;;;;;;4888075;28;20093;-81
2021/03/12 12:47:39;;;;;;;5.13;1.03;;;9.00;99.90;;;;;;4886668;28;20468;-84
2021/03/12 12:50:03;;;;;;;8.98;1.45;;;8.90;99.90;;;;;;4888833;28;20505;-81
2021/03/12 12:52:26;;;;;;;3.58;1.02;;;8.70;99.90;;;;;;4880255;28;20533;-81
2021/03/12 12:54:49;;;;;;;8.23;1.15;;;8.60;99.90;;;;;;4903164;28;20093;-84
2021/03/12 12:57:11;;;;;;;7.47;1.65;;;8.60;99.90;;;;;;4887906;28;20445;-83
2021/03/12 12:59:34;;;;;;;7.55;1.10;;;8.60;99.90;;;;;;4888060;28;20592;-80
2021/03/12 13:01:57;;;;;;;7.85;1.17;;;8.60;99.90;;;;;;4889202;28;20448;-85
2021/03/12 13:04:19;;;;;;;12.55;1.13;;;;;;;;;;4884829;28;20189;-83
2021/03/12 13:06:42;;;;;;;10.27;1.20;;;8.60;99.90;;;;;;4888231;28;20082;-82
2021/03/12 13:09:05;;;;;;;8.55;1.83;;;8.70;99.90;;;;;;4889921;28;20085;-82
2021/03/12 13:11:29;;;;;;;6.50;1.20;;;8.70;99.90;;;;;;4888491;28;20152;-79
2021/03/12 13:13:51;;;;;;;8.63;1.58;;;8.60;99.90;;;;;;4887893;28;20882;-83
2021/03/12 13:16:16;;;;;;;4.25;0.88;;;8.60;99.90;;;;;;4888766;28;20093;-83
2021/03/12 13:18:39;;;;;;;3.58;0.82;;;8.60;99.90;;;;;;4888001;28;20090;-85